Chestnut Dale, North Carolina
Current Conditions -  °F | °C
As of 10:15 AM on Wednesday 22 Oct 2014 (Local Time) from KTNB Reporting Station
Broken Clouds Broken Clouds  
Wind Chill:   Ceiling: 2200
Heat Index:   Visibility: 10mi
Dew Point:   Wind: 14mph
Humidity: 68%   Direction: 300°WNW
Pressure: 30.11"   Gusts: 23mph
Location:  36.0227°N, 81.9499°W
Report Text: KTNB 221415Z AUTO 30012G20KT 270V070 10SM BKN022 BKN027 06/00 A3011 RMK AO2 T00550000
Loading
Personal Weather Stations






























Interactive Weather Map
Tropical Storm Tracking
New forecast layout! Learn more

10-Day Weather Forecast

Advertisements
Track Severe Weather on mobile